M\v Shaya — C6SL9 — position and weather

sailwx.info

Track history (hours):
 
Tides and Currents Weather Stations Pressure Air Temp Water Temp Dewpoint Dewpoint Depression Visibility Wind Speed Wind Dir Waves Ship Positions

M\v Shaya

Last reported at 2014-Jul-31 04:34 UTC. Time now 2014-Jul-31 05:28 UTC.
Position N 43°52' E 009°58'.

Length 100 m; draft 5.6 m.

Type: Cargo ship. MMSI: 311388000.

Date/timePositionNaut miles runAvg speedWind from/ knotsBaromVisibWave heightAir tempDewpointWater temp
2014-Jul-31 04:34N 43°52' E 009°58'7 7.2
2014-Jul-31 03:33N 43°45' E 009°54'7 7.3
2014-Jul-31 02:33N 43°38' E 009°50'8 7.6
2014-Jul-31 01:33N 43°31' E 009°46'8 7.9
2014-Jul-31 00:33N 43°24' E 009°42'8 8.0
2014-Jul-30 23:33N 43°16' E 009°39'8 7.9
2014-Jul-30 22:32N 43°08' E 009°39'8 7.7
2014-Jul-30 21:33N 43°01' E 009°39'8 7.5
2014-Jul-30 20:26N 42°52' E 009°40'6 7.3
2014-Jul-30 19:33N 42°46' E 009°41'8 7.4
2014-Jul-30 18:25N 42°37' E 009°43'341 8.8
2014-Jul-29 03:32N 39°10' E 003°46'1211.7
2014-Jul-29 02:32N 39°02' E 003°35'1311.7
2014-Jul-29 01:27N 38°53' E 003°24'1111.7
2014-Jul-29 00:33N 38°46' E 003°14'1212.2
2014-Jul-28 23:33N 38°37' E 003°02'1413.0
2014-Jul-28 22:27N 38°27' E 002°49'1112.0
2014-Jul-28 21:33N 38°20' E 002°39'1212.2
2014-Jul-28 20:33N 38°12' E 002°28'3511.8
2014-Jul-28 17:33N 37°47' E 001°55'1311.9
2014-Jul-28 16:31N 37°39' E 001°43'162 4.1
2014-Jul-27 00:28N 35°43' W 000°38'0 0.0
2014-Jul-25 15:22N 35°43' W 000°38'0 0.0
2014-Jul-25 14:28N 35°43' W 000°38'0 0.0
2014-Jul-25 13:16N 35°43' W 000°38'0 0.0
2014-Jul-24 23:28N 35°43' W 000°38'0 0.0
2014-Jul-24 22:33N 35°43' W 000°38'1 1.1
2014-Jul-24 21:24N 35°44' W 000°38'4 4.3
2014-Jul-24 20:33N 35°47' W 000°37'16 7.8
2014-Jul-24 18:33N 36°02' W 000°30'1110.6
2014-Jul-24 17:32N 36°06' W 000°18'1312.8
2014-Jul-24 16:33N 36°12' W 000°03'2411.9
2014-Jul-24 14:33N 36°22' E 000°23'1412.2
2014-Jul-24 13:27N 36°27' E 000°39'2912.2
2014-Jul-24 11:05N 36°39' E 001°12'711.9
2014-Jul-24 10:32N 36°40' E 001°20'2511.7
2014-Jul-24 08:23N 36°49' E 001°49'2211.5
2014-Jul-24 06:29N 36°56' E 002°15'1112.0
2014-Jul-24 05:34N 37°00' E 002°28'1211.9
2014-Jul-24 04:34N 37°04' E 002°42'1211.7
2014-Jul-24 03:33N 37°08' E 002°56'1211.7
2014-Jul-24 02:33N 37°12' E 003°09'1312.7
2014-Jul-24 01:31N 37°17' E 003°25'1612.0
2014-Jul-24 00:10N 37°22' E 003°44'1312.0
2014-Jul-23 23:06N 37°27' E 003°59'812.4
2014-Jul-23 22:25N 37°29' E 004°09'1313.7
2014-Jul-23 21:29N 37°34' E 004°24'1312.2
2014-Jul-23 20:25N 37°37' E 004°40'1112.7
2014-Jul-23 19:33N 37°40' E 004°54'1312.5
2014-Jul-23 18:33N 37°45' E 005°09'1312.6
2014-Jul-23 17:33N 37°50' E 005°23'12911.7
2014-Jul-23 06:28N 38°34' E 007°58'1110.6
2014-Jul-23 05:27N 38°38' E 008°11'2110.6
2014-Jul-23 03:29N 38°44' E 008°36'1010.7
2014-Jul-23 02:33N 38°47' E 008°48'1110.8
2014-Jul-23 01:34N 38°51' E 009°01'1111.2
2014-Jul-23 00:33N 38°55' E 009°15'1111.2
2014-Jul-22 23:32N 38°59' E 009°29'23911.4
2014-Jul-22 02:32N 42°57' E 009°39'1110.8
2014-Jul-22 01:33N 43°08' E 009°39'1110.5
2014-Jul-22 00:33N 43°18' E 009°39'1111.0
2014-Jul-21 23:34N 43°29' E 009°42'1111.4
2014-Jul-21 22:34N 43°40' E 009°45'1111.5
2014-Jul-21 21:34N 43°51' E 009°50'1110.9
2014-Jul-21 20:33N 44°02' E 009°53'310.8
2014-Jul-21 20:18N 44°04' E 009°51'2 2.7
2014-Jul-21 19:31N 44°06' E 009°50'0 0.0
2014-Jul-21 18:28N 44°06' E 009°50'0 0.0
2014-Jul-21 17:31N 44°06' E 009°50'0 0.0
2014-Jul-21 16:31N 44°06' E 009°50'0 0.0
2014-Jul-21 15:31N 44°06' E 009°50'0 0.0
2014-Jul-21 14:31N 44°06' E 009°50'0 0.0
2014-Jul-21 13:31N 44°06' E 009°50'0 0.0
2014-Jul-21 12:31N 44°06' E 009°50'0 0.0
2014-Jul-21 11:31N 44°06' E 009°50'0 0.0
2014-Jul-21 10:28N 44°06' E 009°50'0 0.0
2014-Jul-21 09:31N 44°06' E 009°50'0 0.0
2014-Jul-21 08:28N 44°06' E 009°50'0 0.0
2014-Jul-21 07:31N 44°06' E 009°50'0 0.0
2014-Jul-21 06:31N 44°06' E 009°50'0 0.0
2014-Jul-21 05:31N 44°06' E 009°50'  
Track history (hours):
 
Tides and Currents Weather Stations Pressure Air Temp Water Temp Dewpoint Dewpoint Depression Visibility Wind Speed Wind Dir Waves Ship Positions

M\v Shaya

Last reported at 2014-Jul-31 04:34 UTC. Time now 2014-Jul-31 05:28 UTC.
Position N 43°52' E 009°58'.

Length 100 m; draft 5.6 m.

Type: Cargo ship. MMSI: 311388000.

Date/timePositionNaut miles runAvg speedWind from/ knotsBaromVisibWave heightAir tempDewpointWater temp
2014-Jul-31 04:34N 43°52' E 009°58'7 7.2
2014-Jul-31 03:33N 43°45' E 009°54'7 7.3
2014-Jul-31 02:33N 43°38' E 009°50'8 7.6
2014-Jul-31 01:33N 43°31' E 009°46'8 7.9
2014-Jul-31 00:33N 43°24' E 009°42'8 8.0
2014-Jul-30 23:33N 43°16' E 009°39'8 7.9
2014-Jul-30 22:32N 43°08' E 009°39'8 7.7
2014-Jul-30 21:33N 43°01' E 009°39'8 7.5
2014-Jul-30 20:26N 42°52' E 009°40'6 7.3
2014-Jul-30 19:33N 42°46' E 009°41'8 7.4
2014-Jul-30 18:25N 42°37' E 009°43'341 8.8
2014-Jul-29 03:32N 39°10' E 003°46'1211.7
2014-Jul-29 02:32N 39°02' E 003°35'1311.7
2014-Jul-29 01:27N 38°53' E 003°24'1111.7
2014-Jul-29 00:33N 38°46' E 003°14'1212.2
2014-Jul-28 23:33N 38°37' E 003°02'1413.0
2014-Jul-28 22:27N 38°27' E 002°49'1112.0
2014-Jul-28 21:33N 38°20' E 002°39'1212.2
2014-Jul-28 20:33N 38°12' E 002°28'3511.8
2014-Jul-28 17:33N 37°47' E 001°55'1311.9
2014-Jul-28 16:31N 37°39' E 001°43'162 4.1
2014-Jul-27 00:28N 35°43' W 000°38'0 0.0
2014-Jul-25 15:22N 35°43' W 000°38'0 0.0
2014-Jul-25 14:28N 35°43' W 000°38'0 0.0
2014-Jul-25 13:16N 35°43' W 000°38'0 0.0
2014-Jul-24 23:28N 35°43' W 000°38'0 0.0
2014-Jul-24 22:33N 35°43' W 000°38'1 1.1
2014-Jul-24 21:24N 35°44' W 000°38'4 4.3
2014-Jul-24 20:33N 35°47' W 000°37'16 7.8
2014-Jul-24 18:33N 36°02' W 000°30'1110.6
2014-Jul-24 17:32N 36°06' W 000°18'1312.8
2014-Jul-24 16:33N 36°12' W 000°03'2411.9
2014-Jul-24 14:33N 36°22' E 000°23'1412.2
2014-Jul-24 13:27N 36°27' E 000°39'2912.2
2014-Jul-24 11:05N 36°39' E 001°12'711.9
2014-Jul-24 10:32N 36°40' E 001°20'2511.7
2014-Jul-24 08:23N 36°49' E 001°49'2211.5
2014-Jul-24 06:29N 36°56' E 002°15'1112.0
2014-Jul-24 05:34N 37°00' E 002°28'1211.9
2014-Jul-24 04:34N 37°04' E 002°42'1211.7
2014-Jul-24 03:33N 37°08' E 002°56'1211.7
2014-Jul-24 02:33N 37°12' E 003°09'1312.7
2014-Jul-24 01:31N 37°17' E 003°25'1612.0
2014-Jul-24 00:10N 37°22' E 003°44'1312.0
2014-Jul-23 23:06N 37°27' E 003°59'812.4
2014-Jul-23 22:25N 37°29' E 004°09'1313.7
2014-Jul-23 21:29N 37°34' E 004°24'1312.2
2014-Jul-23 20:25N 37°37' E 004°40'1112.7
2014-Jul-23 19:33N 37°40' E 004°54'1312.5
2014-Jul-23 18:33N 37°45' E 005°09'1312.6
2014-Jul-23 17:33N 37°50' E 005°23'12911.7
2014-Jul-23 06:28N 38°34' E 007°58'1110.6
2014-Jul-23 05:27N 38°38' E 008°11'2110.6
2014-Jul-23 03:29N 38°44' E 008°36'1010.7
2014-Jul-23 02:33N 38°47' E 008°48'1110.8
2014-Jul-23 01:34N 38°51' E 009°01'1111.2
2014-Jul-23 00:33N 38°55' E 009°15'1111.2
2014-Jul-22 23:32N 38°59' E 009°29'23911.4
2014-Jul-22 02:32N 42°57' E 009°39'1110.8
2014-Jul-22 01:33N 43°08' E 009°39'1110.5
2014-Jul-22 00:33N 43°18' E 009°39'1111.0
2014-Jul-21 23:34N 43°29' E 009°42'1111.4
2014-Jul-21 22:34N 43°40' E 009°45'1111.5
2014-Jul-21 21:34N 43°51' E 009°50'1110.9
2014-Jul-21 20:33N 44°02' E 009°53'310.8
2014-Jul-21 20:18N 44°04' E 009°51'2 2.7
2014-Jul-21 19:31N 44°06' E 009°50'0 0.0
2014-Jul-21 18:28N 44°06' E 009°50'0 0.0
2014-Jul-21 17:31N 44°06' E 009°50'0 0.0
2014-Jul-21 16:31N 44°06' E 009°50'0 0.0
2014-Jul-21 15:31N 44°06' E 009°50'0 0.0
2014-Jul-21 14:31N 44°06' E 009°50'0 0.0
2014-Jul-21 13:31N 44°06' E 009°50'0 0.0
2014-Jul-21 12:31N 44°06' E 009°50'0 0.0
2014-Jul-21 11:31N 44°06' E 009°50'0 0.0
2014-Jul-21 10:28N 44°06' E 009°50'0 0.0
2014-Jul-21 09:31N 44°06' E 009°50'0 0.0
2014-Jul-21 08:28N 44°06' E 009°50'0 0.0
2014-Jul-21 07:31N 44°06' E 009°50'0 0.0
2014-Jul-21 06:31N 44°06' E 009°50'0 0.0
2014-Jul-21 05:31N 44°06' E 009°50'  

Dump ship's entire track history